sensor_id;sensor_type;location;lat;lon;timestamp;pressure;altitude;pressure_sealevel;temperature;humidity
82305;BME280;71914;47.382;8.168;2023-09-30T00:00:42;97718.59;;;17.76;70.36
82305;BME280;71914;47.382;8.168;2023-09-30T00:03:08;97719.63;;;17.75;70.62
82305;BME280;71914;47.382;8.168;2023-09-30T00:05:36;97726.88;;;17.73;71.05
82305;BME280;71914;47.382;8.168;2023-09-30T00:08:02;97728.84;;;17.71;71.14
82305;BME280;71914;47.382;8.168;2023-09-30T00:10:27;97731.50;;;17.71;71.31
82305;BME280;71914;47.382;8.168;2023-09-30T00:12:54;97730.16;;;17.67;71.39
82305;BME280;71914;47.382;8.168;2023-09-30T00:15:20;97728.16;;;17.61;70.73
82305;BME280;71914;47.382;8.168;2023-09-30T00:17:45;97733.09;;;17.56;70.76
82305;BME280;71914;47.382;8.168;2023-09-30T00:20:11;97728.94;;;17.53;71.50
82305;BME280;71914;47.382;8.168;2023-09-30T00:22:36;97729.06;;;17.52;71.07
82305;BME280;71914;47.382;8.168;2023-09-30T00:25:03;97728.41;;;17.50;71.60
82305;BME280;71914;47.382;8.168;2023-09-30T00:27:28;97726.50;;;17.60;71.10
82305;BME280;71914;47.382;8.168;2023-09-30T00:29:55;97723.47;;;17.55;70.99
82305;BME280;71914;47.382;8.168;2023-09-30T00:32:21;97726.13;;;17.55;71.71
82305;BME280;71914;47.382;8.168;2023-09-30T00:34:46;97726.44;;;17.52;71.74
82305;BME280;71914;47.382;8.168;2023-09-30T00:37:12;97725.78;;;17.50;72.11
82305;BME280;71914;47.382;8.168;2023-09-30T00:39:38;97732.66;;;17.42;71.78
82305;BME280;71914;47.382;8.168;2023-09-30T00:42:04;97736.31;;;17.41;71.97
82305;BME280;71914;47.382;8.168;2023-09-30T00:44:30;97732.31;;;17.37;71.74
82305;BME280;71914;47.382;8.168;2023-09-30T00:46:57;97718.75;;;17.40;71.98
82305;BME280;71914;47.382;8.168;2023-09-30T00:49:25;97718.75;;;17.40;72.11
82305;BME280;71914;47.382;8.168;2023-09-30T00:51:51;97712.94;;;17.37;71.13
82305;BME280;71914;47.382;8.168;2023-09-30T00:54:17;97707.13;;;17.33;71.72
82305;BME280;71914;47.382;8.168;2023-09-30T00:56:43;97700.19;;;17.32;71.19
82305;BME280;71914;47.382;8.168;2023-09-30T00:59:11;97701.31;;;17.30;71.02
82305;BME280;71914;47.382;8.168;2023-09-30T01:01:36;97714.41;;;17.31;70.79
82305;BME280;71914;47.382;8.168;2023-09-30T01:04:04;97709.09;;;17.31;71.18
82305;BME280;71914;47.382;8.168;2023-09-30T01:06:30;97704.25;;;17.26;71.07
82305;BME280;71914;47.382;8.168;2023-09-30T01:08:55;97700.47;;;17.29;71.10
82305;BME280;71914;47.382;8.168;2023-09-30T01:11:21;97701.78;;;17.25;70.89
82305;BME280;71914;47.382;8.168;2023-09-30T01:13:47;97699.84;;;17.35;71.25
82305;BME280;71914;47.382;8.168;2023-09-30T01:16:13;97697.88;;;17.37;71.24
82305;BME280;71914;47.382;8.168;2023-09-30T01:18:39;97693.88;;;17.33;70.93
82305;BME280;71914;47.382;8.168;2023-09-30T01:21:06;97701.00;;;17.33;70.95
82305;BME280;71914;47.382;8.168;2023-09-30T01:23:34;97703.81;;;17.31;71.16
82305;BME280;71914;47.382;8.168;2023-09-30T01:26:01;97701.63;;;17.26;71.29
82305;BME280;71914;47.382;8.168;2023-09-30T01:28:28;97703.59;;;17.24;70.86
82305;BME280;71914;47.382;8.168;2023-09-30T01:30:54;97690.50;;;17.23;70.84
82305;BME280;71914;47.382;8.168;2023-09-30T01:33:19;97695.94;;;17.21;70.88
82305;BME280;71914;47.382;8.168;2023-09-30T01:35:45;97686.66;;;17.17;71.43
82305;BME280;71914;47.382;8.168;2023-09-30T01:38:11;97689.00;;;17.20;71.09
82305;BME280;71914;47.382;8.168;2023-09-30T01:40:37;97683.56;;;17.22;70.86
82305;BME280;71914;47.382;8.168;2023-09-30T01:43:03;97681.88;;;17.21;71.25
82305;BME280;71914;47.382;8.168;2023-09-30T01:45:29;97681.53;;;17.16;70.87
82305;BME280;71914;47.382;8.168;2023-09-30T01:47:54;97694.56;;;17.09;71.87
82305;BME280;71914;47.382;8.168;2023-09-30T01:50:20;97690.56;;;17.05;72.18
82305;BME280;71914;47.382;8.168;2023-09-30T01:52:45;97688.72;;;17.05;72.59
82305;BME280;71914;47.382;8.168;2023-09-30T01:55:11;97690.25;;;17.08;72.79
82305;BME280;71914;47.382;8.168;2023-09-30T01:57:38;97690.94;;;17.10;72.30
82305;BME280;71914;47.382;8.168;2023-09-30T02:00:05;97690.25;;;17.08;72.20
82305;BME280;71914;47.382;8.168;2023-09-30T02:02:34;97693.75;;;17.08;72.47
82305;BME280;71914;47.382;8.168;2023-09-30T02:05:00;97692.06;;;17.07;72.36
82305;BME280;71914;47.382;8.168;2023-09-30T02:07:26;97693.88;;;17.07;72.13
82305;BME280;71914;47.382;8.168;2023-09-30T02:09:51;97693.03;;;17.06;72.36
82305;BME280;71914;47.382;8.168;2023-09-30T02:12:17;97690.56;;;17.05;73.12
82305;BME280;71914;47.382;8.168;2023-09-30T02:14:44;97687.06;;;17.04;72.54
82305;BME280;71914;47.382;8.168;2023-09-30T02:17:11;97689.06;;;17.02;72.66
82305;BME280;71914;47.382;8.168;2023-09-30T02:19:38;97687.06;;;17.04;72.43
82305;BME280;71914;47.382;8.168;2023-09-30T02:22:04;97684.63;;;17.11;71.86
82305;BME280;71914;47.382;8.168;2023-09-30T02:24:30;97694.72;;;17.07;71.81
82305;BME280;71914;47.382;8.168;2023-09-30T02:26:55;97691.91;;;17.09;72.09
82305;BME280;71914;47.382;8.168;2023-09-30T02:29:21;97699.84;;;17.09;72.32
82305;BME280;71914;47.382;8.168;2023-09-30T02:31:48;97693.75;;;17.08;72.75
82305;BME280;71914;47.382;8.168;2023-09-30T02:34:14;97681.97;;;17.11;72.33
82305;BME280;71914;47.382;8.168;2023-09-30T02:36:40;97684.50;;;17.13;71.73
82305;BME280;71914;47.382;8.168;2023-09-30T02:39:05;97691.84;;;17.01;72.53
82305;BME280;71914;47.382;8.168;2023-09-30T02:41:32;97704.94;;;17.02;72.72
82305;BME280;71914;47.382;8.168;2023-09-30T02:43:57;97704.94;;;17.02;72.93
82305;BME280;71914;47.382;8.168;2023-09-30T02:46:23;97699.66;;;17.02;73.09
82305;BME280;71914;47.382;8.168;2023-09-30T02:48:49;97698.94;;;17.00;73.37
82305;BME280;71914;47.382;8.168;2023-09-30T02:51:15;97696.63;;;16.97;73.38
82305;BME280;71914;47.382;8.168;2023-09-30T02:53:40;97687.53;;;17.00;73.50
82305;BME280;71914;47.382;8.168;2023-09-30T02:56:06;97687.69;;;16.98;74.01
82305;BME280;71914;47.382;8.168;2023-09-30T02:58:32;97688.59;;;16.89;74.42
82305;BME280;71914;47.382;8.168;2023-09-30T03:00:57;97688.88;;;16.86;74.99
82305;BME280;71914;47.382;8.168;2023-09-30T03:03:24;97687.09;;;16.86;74.21
82305;BME280;71914;47.382;8.168;2023-09-30T03:05:52;97679.00;;;16.88;74.11
82305;BME280;71914;47.382;8.168;2023-09-30T03:08:17;97691.53;;;16.86;74.17
82305;BME280;71914;47.382;8.168;2023-09-30T03:10:43;97693.81;;;16.81;74.42
82305;BME280;71914;47.382;8.168;2023-09-30T03:13:08;97681.03;;;16.76;74.51
82305;BME280;71914;47.382;8.168;2023-09-30T03:15:34;97689.88;;;16.85;74.04
82305;BME280;71914;47.382;8.168;2023-09-30T03:18:00;97696.16;;;16.84;74.02
82305;BME280;71914;47.382;8.168;2023-09-30T03:20:26;97697.16;;;16.83;73.59
82305;BME280;71914;47.382;8.168;2023-09-30T03:22:53;97696.00;;;16.85;74.16
82305;BME280;71914;47.382;8.168;2023-09-30T03:25:20;97698.81;;;16.84;73.58
82305;BME280;71914;47.382;8.168;2023-09-30T03:27:46;97705.41;;;16.80;73.66
82305;BME280;71914;47.382;8.168;2023-09-30T03:30:13;97696.59;;;16.79;74.24
82305;BME280;71914;47.382;8.168;2023-09-30T03:32:39;97696.94;;;16.76;73.82
82305;BME280;71914;47.382;8.168;2023-09-30T03:35:05;97701.09;;;16.79;74.07
82305;BME280;71914;47.382;8.168;2023-09-30T03:37:31;97708.03;;;16.80;74.08
82305;BME280;71914;47.382;8.168;2023-09-30T03:39:58;97706.06;;;16.82;73.68
82305;BME280;71914;47.382;8.168;2023-09-30T03:42:24;97709.84;;;16.79;73.83
82305;BME280;71914;47.382;8.168;2023-09-30T03:44:49;97712.66;;;16.77;73.55
82305;BME280;71914;47.382;8.168;2023-09-30T03:47:15;97712.66;;;16.77;73.78
82305;BME280;71914;47.382;8.168;2023-09-30T03:49:40;97700.75;;;16.82;73.67
82305;BME280;71914;47.382;8.168;2023-09-30T03:52:07;97694.66;;;16.81;73.77
82305;BME280;71914;47.382;8.168;2023-09-30T03:54:33;97688.13;;;16.75;72.49
82305;BME280;71914;47.382;8.168;2023-09-30T03:57:00;97694.72;;;16.71;73.55
82305;BME280;71914;47.382;8.168;2023-09-30T03:59:26;97694.50;;;16.65;73.22
82305;BME280;71914;47.382;8.168;2023-09-30T04:01:51;97704.03;;;16.57;73.43
82305;BME280;71914;47.382;8.168;2023-09-30T04:04:18;97694.88;;;16.52;74.60
82305;BME280;71914;47.382;8.168;2023-09-30T04:06:44;97691.09;;;16.54;74.83
82305;BME280;71914;47.382;8.168;2023-09-30T04:09:12;97673.34;;;16.65;74.69
82305;BME280;71914;47.382;8.168;2023-09-30T04:11:38;97662.38;;;16.59;74.73
82305;BME280;71914;47.382;8.168;2023-09-30T04:14:06;97649.47;;;16.56;74.86
82305;BME280;71914;47.382;8.168;2023-09-30T04:16:33;97652.63;;;16.60;74.93
82305;BME280;71914;47.382;8.168;2023-09-30T04:18:58;97659.72;;;16.59;75.00
82305;BME280;71914;47.382;8.168;2023-09-30T04:21:24;97663.50;;;16.57;74.15
82305;BME280;71914;47.382;8.168;2023-09-30T04:23:50;97662.47;;;16.50;74.76
82305;BME280;71914;47.382;8.168;2023-09-30T04:26:15;97649.53;;;16.47;74.96
82305;BME280;71914;47.382;8.168;2023-09-30T04:28:41;97653.19;;;16.46;75.13
82305;BME280;71914;47.382;8.168;2023-09-30T04:31:08;97648.56;;;16.48;74.96
82305;BME280;71914;47.382;8.168;2023-09-30T04:33:33;97655.81;;;16.46;74.84
82305;BME280;71914;47.382;8.168;2023-09-30T04:36:01;97679.47;;;16.47;74.68
82305;BME280;71914;47.382;8.168;2023-09-30T04:38:26;97688.53;;;16.45;74.39
82305;BME280;71914;47.382;8.168;2023-09-30T04:40:52;97685.66;;;16.38;74.89
82305;BME280;71914;47.382;8.168;2023-09-30T04:43:19;97675.59;;;16.41;75.17
82305;BME280;71914;47.382;8.168;2023-09-30T04:45:45;97684.53;;;16.40;74.92
82305;BME280;71914;47.382;8.168;2023-09-30T04:48:13;97681.66;;;16.34;75.53
82305;BME280;71914;47.382;8.168;2023-09-30T04:50:39;97678.75;;;16.27;75.75
82305;BME280;71914;47.382;8.168;2023-09-30T04:53:05;97681.88;;;16.22;75.69
82305;BME280;71914;47.382;8.168;2023-09-30T04:55:30;97682.84;;;16.21;75.42
82305;BME280;71914;47.382;8.168;2023-09-30T04:57:56;97693.16;;;16.24;75.64
82305;BME280;71914;47.382;8.168;2023-09-30T05:00:21;97695.53;;;16.18;75.75
82305;BME280;71914;47.382;8.168;2023-09-30T05:02:50;97696.22;;;16.20;75.85
82305;BME280;71914;47.382;8.168;2023-09-30T05:05:19;97706.41;;;16.15;76.11
82305;BME280;71914;47.382;8.168;2023-09-30T05:07:44;97705.22;;;16.09;76.04
82305;BME280;71914;47.382;8.168;2023-09-30T05:10:12;97715.38;;;16.04;76.63
82305;BME280;71914;47.382;8.168;2023-09-30T05:12:41;97715.53;;;16.02;76.38
82305;BME280;71914;47.382;8.168;2023-09-30T05:15:11;97712.50;;;15.97;76.66
82305;BME280;71914;47.382;8.168;2023-09-30T05:17:36;97709.94;;;16.05;76.89
82305;BME280;71914;47.382;8.168;2023-09-30T05:20:02;97702.41;;;16.10;76.47
82305;BME280;71914;47.382;8.168;2023-09-30T05:22:33;97698.94;;;16.10;76.34
82305;BME280;71914;47.382;8.168;2023-09-30T05:24:59;97697.44;;;16.07;76.85
82305;BME280;71914;47.382;8.168;2023-09-30T05:27:25;97706.91;;;16.00;76.85
82305;BME280;71914;47.382;8.168;2023-09-30T05:29:52;97710.38;;;16.01;77.16
82305;BME280;71914;47.382;8.168;2023-09-30T05:32:18;97720.28;;;15.99;76.68
82305;BME280;71914;47.382;8.168;2023-09-30T05:34:43;97726.84;;;15.95;77.00
82305;BME280;71914;47.382;8.168;2023-09-30T05:37:09;97712.91;;;16.02;76.98
82305;BME280;71914;47.382;8.168;2023-09-30T05:39:36;97711.38;;;16.00;76.46
82305;BME280;71914;47.382;8.168;2023-09-30T05:42:02;97718.31;;;16.01;77.58
82305;BME280;71914;47.382;8.168;2023-09-30T05:44:28;97730.72;;;16.00;78.69
82305;BME280;71914;47.382;8.168;2023-09-30T05:46:54;97730.41;;;16.03;78.86
82305;BME280;71914;47.382;8.168;2023-09-30T05:49:20;97731.09;;;16.05;78.62
82305;BME280;71914;47.382;8.168;2023-09-30T05:51:45;97732.22;;;16.03;77.94
82305;BME280;71914;47.382;8.168;2023-09-30T05:54:13;97732.78;;;16.06;78.08
82305;BME280;71914;47.382;8.168;2023-09-30T05:56:40;97740.69;;;16.06;78.51
82305;BME280;71914;47.382;8.168;2023-09-30T05:59:08;97744.47;;;16.04;76.93
82305;BME280;71914;47.382;8.168;2023-09-30T06:01:34;97755.03;;;16.04;78.34
82305;BME280;71914;47.382;8.168;2023-09-30T06:04:01;97753.22;;;16.04;78.09
82305;BME280;71914;47.382;8.168;2023-09-30T06:06:27;97750.56;;;16.04;77.97
82305;BME280;71914;47.382;8.168;2023-09-30T06:08:56;97759.28;;;16.15;77.86
82305;BME280;71914;47.382;8.168;2023-09-30T06:11:24;97756.66;;;16.15;77.64
82305;BME280;71914;47.382;8.168;2023-09-30T06:13:51;97756.66;;;16.15;77.56
82305;BME280;71914;47.382;8.168;2023-09-30T06:16:18;97762.03;;;16.23;77.51
82305;BME280;71914;47.382;8.168;2023-09-30T06:18:44;97752.56;;;16.20;77.24
82305;BME280;71914;47.382;8.168;2023-09-30T06:21:10;97761.06;;;16.24;77.48
82305;BME280;71914;47.382;8.168;2023-09-30T06:23:35;97755.75;;;16.24;76.44
82305;BME280;71914;47.382;8.168;2023-09-30T06:26:01;97769.28;;;16.21;75.76
82305;BME280;71914;47.382;8.168;2023-09-30T06:28:29;97763.31;;;16.19;77.00
82305;BME280;71914;47.382;8.168;2023-09-30T06:30:57;97771.53;;;16.16;77.40
82305;BME280;71914;47.382;8.168;2023-09-30T06:33:23;97786.13;;;16.20;77.31
82305;BME280;71914;47.382;8.168;2023-09-30T06:35:49;97779.00;;;16.20;76.97
82305;BME280;71914;47.382;8.168;2023-09-30T06:38:18;97784.53;;;16.27;76.82
82305;BME280;71914;47.382;8.168;2023-09-30T06:40:44;97788.03;;;16.27;76.82
82305;BME280;71914;47.382;8.168;2023-09-30T06:43:10;97789.25;;;16.33;77.22
82305;BME280;71914;47.382;8.168;2023-09-30T06:45:36;97787.97;;;16.37;76.59
82305;BME280;71914;47.382;8.168;2023-09-30T06:48:08;97794.63;;;16.41;76.75
82305;BME280;71914;47.382;8.168;2023-09-30T06:50:38;97784.06;;;16.41;76.73
82305;BME280;71914;47.382;8.168;2023-09-30T06:53:04;97788.09;;;16.46;76.19
82305;BME280;71914;47.382;8.168;2023-09-30T06:55:30;97781.66;;;16.48;76.29
82305;BME280;71914;47.382;8.168;2023-09-30T06:57:57;97768.31;;;16.40;75.43
82305;BME280;71914;47.382;8.168;2023-09-30T07:00:22;97756.47;;;16.26;74.14
82305;BME280;71914;47.382;8.168;2023-09-30T07:02:48;97783.91;;;16.15;75.73
82305;BME280;71914;47.382;8.168;2023-09-30T07:05:16;97804.94;;;16.17;74.31
82305;BME280;71914;47.382;8.168;2023-09-30T07:07:43;97800.72;;;16.24;75.12
82305;BME280;71914;47.382;8.168;2023-09-30T07:10:09;97810.66;;;16.40;75.61
82305;BME280;71914;47.382;8.168;2023-09-30T07:12:36;97808.78;;;16.50;74.90
82305;BME280;71914;47.382;8.168;2023-09-30T07:15:02;97813.50;;;16.56;74.89
82305;BME280;71914;47.382;8.168;2023-09-30T07:17:28;97811.63;;;16.67;74.78
82305;BME280;71914;47.382;8.168;2023-09-30T07:19:53;97808.22;;;16.74;74.80
82305;BME280;71914;47.382;8.168;2023-09-30T07:22:20;97798.09;;;16.88;72.61
82305;BME280;71914;47.382;8.168;2023-09-30T07:24:46;97797.19;;;16.79;74.05
82305;BME280;71914;47.382;8.168;2023-09-30T07:27:11;97809.81;;;16.85;74.93
82305;BME280;71914;47.382;8.168;2023-09-30T07:29:37;97812.56;;;16.93;74.25
82305;BME280;71914;47.382;8.168;2023-09-30T07:32:03;97819.22;;;16.98;74.05
82305;BME280;71914;47.382;8.168;2023-09-30T07:34:28;97830.56;;;17.08;74.48
82305;BME280;71914;47.382;8.168;2023-09-30T07:36:54;97825.50;;;17.15;73.07
82305;BME280;71914;47.382;8.168;2023-09-30T07:39:22;97810.47;;;17.15;70.13
82305;BME280;71914;47.382;8.168;2023-09-30T07:41:47;97826.34;;;17.15;72.08
82305;BME280;71914;47.382;8.168;2023-09-30T07:44:13;97835.50;;;17.21;72.10
82305;BME280;71914;47.382;8.168;2023-09-30T07:46:38;97820.13;;;17.24;72.78
82305;BME280;71914;47.382;8.168;2023-09-30T07:49:04;97816.19;;;17.29;72.10
82305;BME280;71914;47.382;8.168;2023-09-30T07:51:32;97813.75;;;17.35;72.30
82305;BME280;71914;47.382;8.168;2023-09-30T07:53:57;97822.25;;;17.39;71.46
82305;BME280;71914;47.382;8.168;2023-09-30T07:56:24;97817.16;;;17.46;71.26
82305;BME280;71914;47.382;8.168;2023-09-30T07:58:50;97813.94;;;17.60;71.61
82305;BME280;71914;47.382;8.168;2023-09-30T08:01:16;97816.31;;;17.71;71.21
82305;BME280;71914;47.382;8.168;2023-09-30T08:03:42;97818.88;;;17.81;69.72
82305;BME280;71914;47.382;8.168;2023-09-30T08:06:07;97814.00;;;17.95;69.36
82305;BME280;71914;47.382;8.168;2023-09-30T08:08:34;97812.53;;;18.00;68.70
82305;BME280;71914;47.382;8.168;2023-09-30T08:11:00;97808.63;;;18.13;69.09
82305;BME280;71914;47.382;8.168;2023-09-30T08:13:27;97800.19;;;18.17;67.55
82305;BME280;71914;47.382;8.168;2023-09-30T08:15:54;97797.94;;;18.31;68.03
82305;BME280;71914;47.382;8.168;2023-09-30T08:18:21;97794.28;;;18.32;65.90
82305;BME280;71914;47.382;8.168;2023-09-30T08:20:47;97799.56;;;18.23;67.58
82305;BME280;71914;47.382;8.168;2023-09-30T08:23:12;97807.41;;;18.33;65.95
82305;BME280;71914;47.382;8.168;2023-09-30T08:25:38;97818.94;;;18.24;65.41
82305;BME280;71914;47.382;8.168;2023-09-30T08:28:04;97823.56;;;18.14;64.81
82305;BME280;71914;47.382;8.168;2023-09-30T08:30:32;97828.19;;;17.85;65.62
82305;BME280;71914;47.382;8.168;2023-09-30T08:32:58;97831.34;;;17.63;66.00
82305;BME280;71914;47.382;8.168;2023-09-30T08:35:24;97831.03;;;17.66;68.09
82305;BME280;71914;47.382;8.168;2023-09-30T08:37:49;97827.28;;;17.76;65.90
82305;BME280;71914;47.382;8.168;2023-09-30T08:40:19;97821.94;;;17.68;64.83
82305;BME280;71914;47.382;8.168;2023-09-30T08:42:48;97800.84;;;17.58;67.16
82305;BME280;71914;47.382;8.168;2023-09-30T08:45:16;97784.84;;;17.42;65.80
82305;BME280;71914;47.382;8.168;2023-09-30T08:47:44;97780.09;;;17.54;67.17
82305;BME280;71914;47.382;8.168;2023-09-30T08:50:10;97791.03;;;17.77;67.54
82305;BME280;71914;47.382;8.168;2023-09-30T08:52:37;97805.72;;;17.98;65.76
82305;BME280;71914;47.382;8.168;2023-09-30T08:55:05;97801.16;;;18.08;65.14
82305;BME280;71914;47.382;8.168;2023-09-30T08:57:31;97800.75;;;17.95;64.78
82305;BME280;71914;47.382;8.168;2023-09-30T08:59:58;97797.31;;;18.02;65.93
82305;BME280;71914;47.382;8.168;2023-09-30T09:02:25;97795.44;;;18.29;65.14
82305;BME280;71914;47.382;8.168;2023-09-30T09:04:52;97789.50;;;18.44;64.67
82305;BME280;71914;47.382;8.168;2023-09-30T09:07:17;97792.84;;;18.54;63.41
82305;BME280;71914;47.382;8.168;2023-09-30T09:10:02;97787.25;;;18.65;62.95
82305;BME280;71914;47.382;8.168;2023-09-30T09:12:28;97784.88;;;18.37;63.15
82305;BME280;71914;47.382;8.168;2023-09-30T09:14:54;97790.16;;;18.37;64.62
82305;BME280;71914;47.382;8.168;2023-09-30T09:17:19;97800.53;;;18.22;64.54
82305;BME280;71914;47.382;8.168;2023-09-30T09:20:00;97802.13;;;18.41;63.09
82305;BME280;71914;47.382;8.168;2023-09-30T09:22:37;97811.31;;;18.21;62.54
82305;BME280;71914;47.382;8.168;2023-09-30T09:25:03;97813.56;;;17.99;64.87
82305;BME280;71914;47.382;8.168;2023-09-30T09:27:33;97815.47;;;18.23;63.53
82305;BME280;71914;47.382;8.168;2023-09-30T09:30:14;97815.84;;;18.37;62.57
82305;BME280;71914;47.382;8.168;2023-09-30T09:32:39;97820.34;;;18.36;62.99
82305;BME280;71914;47.382;8.168;2023-09-30T09:35:19;97815.84;;;18.37;62.83
82305;BME280;71914;47.382;8.168;2023-09-30T09:37:54;97817.41;;;18.48;62.20
82305;BME280;71914;47.382;8.168;2023-09-30T09:40:22;97816.41;;;18.49;61.65
82305;BME280;71914;47.382;8.168;2023-09-30T09:42:50;97809.91;;;18.43;62.40
82305;BME280;71914;47.382;8.168;2023-09-30T09:45:20;97808.63;;;18.55;63.48
82305;BME280;71914;47.382;8.168;2023-09-30T09:47:47;97811.78;;;18.51;63.11
82305;BME280;71914;47.382;8.168;2023-09-30T09:50:13;97803.84;;;18.67;63.37
82305;BME280;71914;47.382;8.168;2023-09-30T09:52:42;97804.53;;;18.78;63.46
82305;BME280;71914;47.382;8.168;2023-09-30T09:55:10;97811.84;;;18.75;62.89
82305;BME280;71914;47.382;8.168;2023-09-30T09:57:37;97805.13;;;18.55;61.89
82305;BME280;71914;47.382;8.168;2023-09-30T10:00:04;97794.34;;;18.48;63.69
82305;BME280;71914;47.382;8.168;2023-09-30T10:02:39;97787.19;;;18.40;62.83
82305;BME280;71914;47.382;8.168;2023-09-30T10:05:06;97786.84;;;18.35;63.66
82305;BME280;71914;47.382;8.168;2023-09-30T10:07:35;97778.06;;;18.43;63.35
82305;BME280;71914;47.382;8.168;2023-09-30T10:10:07;97775.44;;;18.51;62.00
82305;BME280;71914;47.382;8.168;2023-09-30T10:12:36;97775.66;;;18.74;63.13
82305;BME280;71914;47.382;8.168;2023-09-30T10:18:05;97759.09;;;19.47;62.51
82305;BME280;71914;47.382;8.168;2023-09-30T10:20:41;97757.34;;;19.79;61.59
82305;BME280;71914;47.382;8.168;2023-09-30T10:23:20;97753.09;;;19.45;59.20
82305;BME280;71914;47.382;8.168;2023-09-30T10:25:48;97752.25;;;19.52;60.14
82305;BME280;71914;47.382;8.168;2023-09-30T10:28:36;97732.06;;;19.10;61.15
82305;BME280;71914;47.382;8.168;2023-09-30T10:31:10;97744.00;;;19.22;60.62
82305;BME280;71914;47.382;8.168;2023-09-30T10:36:40;97736.50;;;19.43;60.80
82305;BME280;71914;47.382;8.168;2023-09-30T10:39:11;97737.47;;;19.50;59.12
82305;BME280;71914;47.382;8.168;2023-09-30T10:41:50;97740.06;;;19.74;59.13
82305;BME280;71914;47.382;8.168;2023-09-30T10:44:34;97737.28;;;20.16;58.39
82305;BME280;71914;47.382;8.168;2023-09-30T10:47:00;97741.13;;;20.45;58.17
82305;BME280;71914;47.382;8.168;2023-09-30T10:49:46;97737.94;;;20.18;57.39
82305;BME280;71914;47.382;8.168;2023-09-30T10:52:21;97745.75;;;20.51;56.14
82305;BME280;71914;47.382;8.168;2023-09-30T10:54:48;97739.31;;;20.77;54.65
82305;BME280;71914;47.382;8.168;2023-09-30T10:57:26;97735.16;;;20.74;54.81
82305;BME280;71914;47.382;8.168;2023-09-30T11:00:07;97729.09;;;21.03;55.46
82305;BME280;71914;47.382;8.168;2023-09-30T11:02:33;97729.56;;;21.07;54.90
82305;BME280;71914;47.382;8.168;2023-09-30T11:05:08;97719.06;;;20.59;55.39
82305;BME280;71914;47.382;8.168;2023-09-30T11:07:34;97724.25;;;20.29;55.60
82305;BME280;71914;47.382;8.168;2023-09-30T11:10:02;97722.66;;;20.43;56.41
82305;BME280;71914;47.382;8.168;2023-09-30T11:12:30;97716.66;;;20.18;56.88
82305;BME280;71914;47.382;8.168;2023-09-30T11:14:59;97713.69;;;20.44;56.45
82305;BME280;71914;47.382;8.168;2023-09-30T11:17:24;97704.88;;;20.75;55.69
82305;BME280;71914;47.382;8.168;2023-09-30T11:19:50;97722.25;;;20.86;56.11
82305;BME280;71914;47.382;8.168;2023-09-30T11:22:16;97718.09;;;20.83;53.82
82305;BME280;71914;47.382;8.168;2023-09-30T11:24:42;97714.78;;;20.58;55.29
82305;BME280;71914;47.382;8.168;2023-09-30T11:27:08;97716.00;;;20.16;54.81
82305;BME280;71914;47.382;8.168;2023-09-30T11:29:35;97723.50;;;20.44;55.84
82305;BME280;71914;47.382;8.168;2023-09-30T11:32:01;97710.81;;;20.77;54.78
82305;BME280;71914;47.382;8.168;2023-09-30T11:34:33;97718.66;;;21.17;53.98
82305;BME280;71914;47.382;8.168;2023-09-30T11:37:00;97711.03;;;21.14;53.16
82305;BME280;71914;47.382;8.168;2023-09-30T11:39:27;97706.47;;;21.22;53.07
82305;BME280;71914;47.382;8.168;2023-09-30T11:41:54;97705.16;;;21.18;52.54
82305;BME280;71914;47.382;8.168;2023-09-30T11:44:23;97704.91;;;21.43;51.72
82305;BME280;71914;47.382;8.168;2023-09-30T11:46:52;97694.91;;;21.60;52.20
82305;BME280;71914;47.382;8.168;2023-09-30T11:49:27;97695.31;;;21.19;53.61
82305;BME280;71914;47.382;8.168;2023-09-30T11:51:53;97698.38;;;20.93;54.43
82305;BME280;71914;47.382;8.168;2023-09-30T11:54:19;97695.53;;;20.94;53.27
82305;BME280;71914;47.382;8.168;2023-09-30T11:56:44;97689.06;;;20.65;55.46
82305;BME280;71914;47.382;8.168;2023-09-30T11:59:12;97686.03;;;20.77;53.33
82305;BME280;71914;47.382;8.168;2023-09-30T12:01:38;97689.50;;;20.77;52.30
82305;BME280;71914;47.382;8.168;2023-09-30T12:04:05;97683.28;;;20.62;54.40
82305;BME280;71914;47.382;8.168;2023-09-30T12:06:31;97685.75;;;20.71;53.60
82305;BME280;71914;47.382;8.168;2023-09-30T12:08:59;97680.06;;;20.43;53.46
82305;BME280;71914;47.382;8.168;2023-09-30T12:11:25;97672.66;;;20.30;55.19
82305;BME280;71914;47.382;8.168;2023-09-30T12:13:51;97676.47;;;20.36;55.25
82305;BME280;71914;47.382;8.168;2023-09-30T12:16:17;97678.44;;;20.42;54.56
82305;BME280;71914;47.382;8.168;2023-09-30T12:18:45;97677.22;;;20.45;54.62
82305;BME280;71914;47.382;8.168;2023-09-30T12:21:12;97682.22;;;20.48;54.70
82305;BME280;71914;47.382;8.168;2023-09-30T12:23:45;97680.03;;;20.28;53.98
82305;BME280;71914;47.382;8.168;2023-09-30T12:26:11;97678.22;;;20.20;54.69
82305;BME280;71914;47.382;8.168;2023-09-30T12:28:37;97677.72;;;20.25;53.63
82305;BME280;71914;47.382;8.168;2023-09-30T12:31:06;97671.16;;;20.36;55.94
82305;BME280;71914;47.382;8.168;2023-09-30T12:33:31;97671.03;;;20.52;54.89
82305;BME280;71914;47.382;8.168;2023-09-30T12:35:57;97674.28;;;20.63;53.51
82305;BME280;71914;47.382;8.168;2023-09-30T12:38:25;97663.25;;;20.74;54.60
82305;BME280;71914;47.382;8.168;2023-09-30T12:40:51;97670.28;;;20.90;53.02
82305;BME280;71914;47.382;8.168;2023-09-30T12:43:17;97666.50;;;20.84;53.03
82305;BME280;71914;47.382;8.168;2023-09-30T12:45:42;97672.00;;;20.83;52.03
82305;BME280;71914;47.382;8.168;2023-09-30T12:48:08;97662.81;;;20.62;52.69
82305;BME280;71914;47.382;8.168;2023-09-30T12:50:33;97669.22;;;20.76;54.01
82305;BME280;71914;47.382;8.168;2023-09-30T12:52:59;97675.13;;;20.86;53.79
82305;BME280;71914;47.382;8.168;2023-09-30T12:55:26;97671.03;;;20.99;52.19
82305;BME280;71914;47.382;8.168;2023-09-30T12:57:52;97675.66;;;21.20;53.39
82305;BME280;71914;47.382;8.168;2023-09-30T13:00:18;97666.09;;;21.40;52.51
82305;BME280;71914;47.382;8.168;2023-09-30T13:02:44;97656.97;;;21.58;51.10
82305;BME280;71914;47.382;8.168;2023-09-30T13:05:10;97659.41;;;21.75;50.33